createdAt,value
2018-01-04T00:01:38.735Z,8.50
2018-01-04T00:04:06.830Z,10.17
2018-01-04T00:06:34.920Z,9.40
2018-01-04T00:09:03.026Z,8.30
2018-01-04T00:11:31.118Z,5.70
2018-01-04T00:14:00.209Z,8.60
2018-01-04T00:16:28.380Z,7.37
2018-01-04T00:18:56.523Z,14.77
2018-01-04T00:21:24.625Z,5.70
2018-01-04T00:23:52.733Z,10.50
2018-01-04T00:26:20.826Z,6.17
2018-01-04T00:28:49.014Z,6.20
2018-01-04T00:31:17.184Z,10.30
2018-01-04T00:33:45.341Z,9.27
2018-01-04T00:36:13.759Z,9.83
2018-01-04T00:38:41.870Z,19.40
2018-01-04T00:41:10.004Z,12.13
2018-01-04T00:43:38.088Z,10.33
2018-01-04T00:46:06.198Z,8.37
2018-01-04T00:48:34.311Z,10.60
2018-01-04T00:51:02.438Z,7.60
2018-01-04T00:53:30.565Z,8.70
2018-01-04T00:55:58.697Z,8.03
2018-01-04T00:58:26.782Z,8.10
2018-01-04T01:00:54.885Z,6.70
2018-01-04T01:03:22.987Z,7.93
2018-01-04T01:05:51.143Z,8.80
2018-01-04T01:08:19.271Z,9.20
2018-01-04T01:10:47.388Z,5.90
2018-01-04T01:13:16.256Z,12.50
2018-01-04T01:15:44.399Z,4.70
2018-01-04T01:18:12.619Z,12.07
2018-01-04T01:20:40.734Z,7.63
2018-01-04T01:23:09.599Z,9.33
2018-01-04T01:25:37.693Z,7.17
2018-01-04T01:28:05.784Z,6.50
2018-01-04T01:30:33.926Z,7.30
2018-01-04T01:33:02.098Z,10.00
2018-01-04T01:35:30.294Z,5.90
2018-01-04T01:37:58.381Z,10.23
2018-01-04T01:40:26.513Z,11.93
2018-01-04T01:42:54.652Z,8.90
2018-01-04T01:45:22.768Z,6.63
2018-01-04T01:47:50.885Z,10.20
2018-01-04T01:50:19.782Z,6.63
2018-01-04T01:52:47.922Z,8.67
2018-01-04T01:55:16.049Z,11.77
2018-01-04T01:57:44.994Z,8.80
2018-01-04T02:00:13.121Z,14.90
2018-01-04T02:02:41.230Z,6.00
2018-01-04T02:05:09.352Z,8.50
2018-01-04T02:07:37.498Z,9.43
2018-01-04T02:10:06.391Z,9.87
2018-01-04T02:12:34.581Z,9.60
2018-01-04T02:15:02.754Z,6.30
2018-01-04T02:17:30.913Z,7.43
2018-01-04T02:20:10.848Z,9.63
2018-01-04T02:22:47.608Z,11.73
2018-01-04T02:25:28.184Z,9.57
2018-01-04T02:28:08.061Z,9.97
2018-01-04T02:30:47.868Z,9.53
2018-01-04T02:33:27.688Z,14.83
2018-01-04T02:36:07.692Z,10.43
2018-01-04T02:41:54.885Z,9.90
2018-01-04T02:44:34.700Z,12.13
2018-01-04T02:47:02.901Z,6.33
2018-01-04T02:49:31.031Z,8.23
2018-01-04T02:51:59.144Z,8.57
2018-01-04T02:54:27.239Z,9.03
2018-01-04T02:56:55.331Z,4.47
2018-01-04T02:59:23.416Z,2.93
2018-01-04T03:01:51.588Z,5.80
2018-01-04T03:04:20.504Z,2.80
2018-01-04T03:06:48.602Z,3.43
2018-01-04T03:09:16.725Z,5.03
2018-01-04T03:11:45.767Z,5.27
2018-01-04T03:14:13.910Z,6.80
2018-01-04T03:16:42.063Z,5.07
2018-01-04T03:19:10.221Z,5.43
2018-01-04T03:21:43.875Z,5.80
2018-01-04T03:24:11.993Z,5.10
2018-01-04T03:26:45.692Z,10.23
2018-01-04T03:29:20.379Z,4.60
2018-01-04T03:31:54.050Z,8.93
2018-01-04T03:34:28.570Z,7.90
2018-01-04T03:37:02.408Z,9.53
2018-01-04T03:39:31.320Z,8.13
2018-01-04T03:42:05.141Z,6.60
2018-01-04T03:44:39.184Z,10.17
2018-01-04T03:47:13.634Z,8.83
2018-01-04T03:49:47.792Z,6.57
2018-01-04T03:52:21.725Z,6.00
2018-01-04T03:54:55.607Z,3.43
2018-01-04T03:57:29.625Z,5.20
2018-01-04T04:00:03.272Z,4.53
2018-01-04T04:02:37.014Z,5.80
2018-01-04T04:05:11.744Z,5.67
2018-01-04T04:07:40.622Z,4.87
2018-01-04T04:10:08.731Z,5.40
2018-01-04T04:12:37.589Z,6.90
2018-01-04T04:15:05.709Z,6.30
2018-01-04T04:17:33.821Z,10.50
2018-01-04T04:20:02.085Z,7.97
2018-01-04T04:22:30.250Z,9.60
2018-01-04T04:24:58.368Z,5.63
2018-01-04T04:27:26.577Z,6.00
2018-01-04T04:29:54.665Z,7.53
2018-01-04T04:32:22.781Z,8.57
2018-01-04T04:34:51.172Z,5.97
2018-01-04T04:37:19.283Z,9.40
2018-01-04T04:39:47.399Z,6.03
2018-01-04T04:42:15.587Z,6.00
2018-01-04T04:44:43.838Z,5.97
2018-01-04T04:47:11.961Z,10.20
2018-01-04T04:49:40.065Z,7.07
2018-01-04T04:52:08.212Z,4.20
2018-01-04T04:54:36.348Z,7.07
2018-01-04T04:57:04.440Z,7.17
2018-01-04T04:59:32.540Z,4.77
2018-01-04T05:02:00.667Z,6.27
2018-01-04T05:04:28.884Z,6.70
2018-01-04T05:06:56.989Z,4.30
2018-01-04T05:09:25.164Z,5.63
2018-01-04T05:11:53.334Z,8.00
2018-01-04T05:14:21.459Z,7.67
2018-01-04T05:16:49.601Z,11.73
2018-01-04T05:19:17.805Z,4.70
2018-01-04T05:21:45.918Z,4.43
2018-01-04T05:24:14.025Z,12.97
2018-01-04T05:26:42.998Z,10.20
2018-01-04T05:29:11.161Z,8.57
2018-01-04T05:31:39.311Z,7.10
2018-01-04T05:34:07.484Z,6.63
2018-01-04T05:36:35.617Z,6.77
2018-01-04T05:39:03.778Z,8.33
2018-01-04T05:41:31.911Z,9.17
2018-01-04T05:44:00.026Z,6.43
2018-01-04T05:46:28.173Z,5.27
2018-01-04T05:48:56.405Z,6.70
2018-01-04T05:51:24.596Z,5.07
2018-01-04T05:53:52.798Z,6.73
2018-01-04T05:56:20.965Z,5.13
2018-01-04T05:58:49.201Z,6.20
2018-01-04T06:01:17.366Z,5.43
2018-01-04T06:03:45.530Z,7.03
2018-01-04T06:06:13.727Z,4.20
2018-01-04T06:08:41.847Z,5.00
2018-01-04T06:11:10.006Z,4.57
2018-01-04T06:13:38.093Z,4.67
2018-01-04T06:16:06.482Z,3.40
2018-01-04T06:18:34.631Z,4.10
2018-01-04T06:21:04.581Z,11.23
2018-01-04T06:23:32.705Z,3.50
2018-01-04T06:26:00.813Z,6.27
2018-01-04T06:28:28.934Z,5.07
2018-01-04T06:30:57.214Z,3.30
2018-01-04T06:33:25.449Z,6.90
2018-01-04T06:35:53.663Z,10.73
2018-01-04T06:38:21.778Z,8.60
2018-01-04T06:40:50.144Z,6.20
2018-01-04T06:43:18.241Z,6.07
2018-01-04T06:45:46.522Z,5.37
2018-01-04T06:48:15.530Z,6.43
2018-01-04T06:50:43.623Z,6.63
2018-01-04T06:53:11.828Z,5.43
2018-01-04T06:55:39.985Z,6.63
2018-01-04T06:58:08.146Z,8.60
2018-01-04T07:00:36.257Z,4.97
2018-01-04T07:03:04.448Z,8.37
2018-01-04T07:05:32.634Z,5.83
2018-01-04T07:08:00.740Z,7.80
2018-01-04T07:10:28.898Z,4.50
2018-01-04T07:12:57.017Z,7.43
2018-01-04T07:15:25.533Z,8.70
2018-01-04T07:17:53.641Z,7.13
2018-01-04T07:20:21.797Z,3.83
2018-01-04T07:22:49.884Z,6.80
2018-01-04T07:25:18.124Z,6.27
2018-01-04T07:27:46.248Z,5.90
2018-01-04T07:30:14.477Z,7.17
2018-01-04T07:32:42.572Z,6.73
2018-01-04T07:35:10.809Z,4.63
2018-01-04T07:37:48.654Z,9.30
2018-01-04T07:40:16.864Z,8.43
2018-01-04T07:42:45.749Z,8.13
2018-01-04T07:45:13.848Z,15.00
2018-01-04T07:47:41.999Z,9.90
2018-01-04T07:50:10.148Z,10.37
2018-01-04T07:52:39.322Z,11.37
2018-01-04T07:55:08.117Z,6.53
2018-01-04T07:57:36.996Z,5.93
2018-01-04T08:00:05.164Z,8.30
2018-01-04T08:02:33.344Z,7.43
2018-01-04T08:05:01.591Z,6.50
2018-01-04T08:07:30.480Z,8.87
2018-01-04T08:09:58.642Z,4.10
2018-01-04T08:12:26.865Z,5.47
2018-01-04T08:14:54.993Z,8.80
2018-01-04T08:17:23.108Z,4.97
2018-01-04T08:19:51.318Z,6.57
2018-01-04T08:22:20.225Z,6.03
2018-01-04T08:24:48.464Z,5.83
2018-01-04T08:27:16.677Z,8.93
2018-01-04T08:29:45.550Z,6.27
2018-01-04T08:32:13.666Z,7.80
2018-01-04T08:34:41.917Z,5.20
2018-01-04T08:37:10.157Z,5.40
2018-01-04T08:39:39.082Z,4.13
2018-01-04T08:42:07.238Z,5.10
2018-01-04T08:44:35.426Z,3.20
2018-01-04T08:47:03.695Z,8.10
2018-01-04T08:49:31.861Z,4.53
2018-01-04T08:52:00.119Z,3.77
2018-01-04T08:54:28.317Z,4.27
2018-01-04T08:56:56.702Z,3.53
2018-01-04T08:59:24.927Z,1.53
2018-01-04T09:01:54.169Z,2.00
2018-01-04T09:04:22.389Z,4.93
2018-01-04T09:06:50.617Z,3.57
2018-01-04T09:09:22.034Z,4.33
2018-01-04T09:11:50.300Z,5.40
2018-01-04T09:14:18.410Z,1.93
2018-01-04T09:16:46.594Z,6.37
2018-01-04T09:19:14.875Z,3.57
2018-01-04T09:21:43.098Z,4.50
2018-01-04T09:24:11.240Z,2.70
2018-01-04T09:26:39.483Z,4.13
2018-01-04T09:29:08.381Z,5.77
2018-01-04T09:31:36.525Z,7.23
2018-01-04T09:34:04.706Z,5.03
2018-01-04T09:36:32.853Z,5.20
2018-01-04T09:39:01.787Z,2.00
2018-01-04T09:41:29.945Z,3.73
2018-01-04T09:43:58.854Z,8.70
2018-01-04T09:46:27.352Z,3.57
2018-01-04T09:48:56.227Z,6.17
2018-01-04T09:51:24.403Z,5.20
2018-01-04T09:53:52.552Z,5.17
2018-01-04T09:56:20.666Z,6.90
2018-01-04T09:58:48.825Z,5.10
2018-01-04T10:01:17.419Z,7.73
2018-01-04T10:03:45.925Z,7.17
2018-01-04T10:06:14.288Z,7.20
2018-01-04T10:08:43.574Z,12.80
2018-01-04T10:11:11.764Z,7.93
2018-01-04T10:13:39.928Z,9.90
2018-01-04T10:16:08.334Z,15.43
2018-01-04T10:18:37.280Z,13.40
2018-01-04T10:21:07.446Z,15.00
2018-01-04T10:23:35.591Z,15.80
2018-01-04T10:26:04.272Z,22.93
2018-01-04T10:28:32.628Z,22.40
2018-01-04T10:31:00.807Z,19.60
2018-01-04T10:33:28.961Z,13.97
2018-01-04T10:35:57.976Z,20.30
2018-01-04T10:38:26.113Z,12.40
2018-01-04T10:40:54.339Z,17.17
2018-01-04T10:43:22.473Z,18.83
2018-01-04T10:45:50.724Z,13.40
2018-01-04T10:48:18.907Z,11.50
2018-01-04T10:50:47.123Z,18.97
2018-01-04T10:53:16.036Z,13.53
2018-01-04T10:55:44.962Z,22.17
2018-01-04T10:58:13.075Z,15.43
2018-01-04T11:00:41.549Z,19.43
2018-01-04T11:03:09.720Z,22.00
2018-01-04T11:05:37.865Z,20.80
2018-01-04T11:08:06.070Z,22.37
2018-01-04T11:10:34.194Z,16.73
2018-01-04T11:13:02.373Z,26.77
2018-01-04T11:15:30.517Z,22.80
2018-01-04T11:17:58.845Z,24.90
2018-01-04T11:20:27.061Z,27.03
2018-01-04T11:22:55.358Z,21.10
2018-01-04T11:25:24.930Z,16.67
2018-01-04T11:27:53.334Z,25.77
2018-01-04T11:30:21.439Z,14.57
2018-01-04T11:32:50.078Z,21.30
2018-01-04T11:35:18.320Z,18.97
2018-01-04T11:37:46.536Z,15.27
2018-01-04T11:40:14.718Z,17.17
2018-01-04T11:42:42.938Z,22.70
2018-01-04T11:45:11.205Z,22.70
2018-01-04T11:47:40.190Z,19.27
2018-01-04T11:50:08.535Z,14.97
2018-01-04T11:52:36.700Z,19.23
2018-01-04T11:55:05.570Z,19.30
2018-01-04T11:57:33.671Z,21.50
2018-01-04T12:00:01.810Z,20.80
2018-01-04T12:02:30.061Z,15.13
2018-01-04T12:04:59.038Z,16.20
2018-01-04T12:07:27.332Z,17.53
2018-01-04T12:09:55.686Z,21.13
2018-01-04T12:12:23.967Z,18.67
2018-01-04T12:14:52.140Z,13.90
2018-01-04T12:17:22.741Z,15.53
2018-01-04T12:19:50.913Z,17.83
2018-01-04T12:22:19.942Z,21.73
2018-01-04T12:24:48.866Z,18.50
2018-01-04T12:27:17.322Z,13.27
2018-01-04T12:29:45.445Z,15.60
2018-01-04T12:32:13.540Z,24.57
2018-01-04T12:34:42.666Z,16.80
2018-01-04T12:37:11.176Z,21.00
2018-01-04T12:39:39.301Z,17.10
2018-01-04T12:42:08.585Z,24.90
2018-01-04T12:44:36.827Z,19.37
2018-01-04T12:47:05.029Z,17.50
2018-01-04T12:49:33.230Z,23.10
2018-01-04T12:52:01.644Z,26.00
2018-01-04T12:54:29.784Z,23.33
2018-01-04T12:56:59.133Z,14.70
2018-01-04T12:59:27.253Z,19.17
2018-01-04T13:01:55.405Z,19.60
2018-01-04T13:04:23.501Z,19.63
2018-01-04T13:06:52.448Z,21.00
2018-01-04T13:09:24.919Z,13.77
2018-01-04T13:11:53.117Z,19.83
2018-01-04T13:14:21.284Z,14.33
2018-01-04T13:16:49.766Z,21.27
2018-01-04T13:19:17.986Z,18.33
2018-01-04T13:21:46.246Z,23.40
2018-01-04T13:24:14.354Z,20.47
2018-01-04T13:26:42.607Z,17.10
2018-01-04T13:29:10.721Z,19.93
2018-01-04T13:31:38.969Z,20.53
2018-01-04T13:34:07.216Z,20.50
2018-01-04T13:36:35.348Z,20.73
2018-01-04T13:39:03.460Z,15.37
2018-01-04T13:41:31.727Z,21.07
2018-01-04T13:43:59.983Z,15.20
2018-01-04T13:46:28.113Z,18.43
2018-01-04T13:48:56.280Z,22.13
2018-01-04T13:51:24.400Z,17.97
2018-01-04T13:53:52.674Z,21.63
2018-01-04T13:56:20.819Z,15.07
2018-01-04T13:58:49.773Z,19.47
2018-01-04T14:01:18.440Z,14.37
2018-01-04T14:03:46.581Z,18.60
2018-01-04T14:06:14.694Z,26.40
2018-01-04T14:08:42.869Z,19.43
2018-01-04T14:11:11.078Z,22.50
2018-01-04T14:13:39.271Z,22.97
2018-01-04T14:16:07.485Z,23.80
2018-01-04T14:18:35.856Z,20.63
2018-01-04T14:21:04.130Z,19.90
2018-01-04T14:23:32.424Z,16.57
2018-01-04T14:26:00.552Z,24.67
2018-01-04T14:28:28.645Z,21.17
2018-01-04T14:30:56.830Z,19.07
2018-01-04T14:33:25.142Z,22.80
2018-01-04T14:35:53.345Z,18.83
2018-01-04T14:38:21.464Z,28.03
2018-01-04T14:40:49.670Z,21.80
2018-01-04T14:43:17.924Z,38.47
2018-01-04T14:45:46.163Z,22.73
2018-01-04T14:48:14.331Z,22.20
2018-01-04T14:50:42.470Z,21.60
2018-01-04T14:53:10.646Z,30.47
2018-01-04T14:55:38.843Z,23.50
2018-01-04T14:58:07.708Z,22.00
2018-01-04T15:00:36.090Z,25.17
2018-01-04T15:03:04.579Z,17.90
2018-01-04T15:05:32.817Z,17.40
2018-01-04T15:08:01.715Z,22.00
2018-01-04T15:10:29.877Z,25.17
2018-01-04T15:12:58.092Z,22.93
2018-01-04T15:15:26.995Z,22.70
2018-01-04T15:17:56.832Z,27.73
2018-01-04T15:20:25.710Z,24.73
2018-01-04T15:22:53.880Z,23.17
2018-01-04T15:25:22.105Z,27.97
2018-01-04T15:27:50.253Z,30.20
2018-01-04T15:30:18.383Z,22.40
2018-01-04T15:32:47.986Z,24.13
2018-01-04T15:35:16.262Z,22.63
2018-01-04T15:37:44.394Z,21.07
2018-01-04T15:40:12.684Z,23.13
2018-01-04T15:42:40.833Z,18.87
2018-01-04T15:45:08.975Z,30.17
2018-01-04T15:47:37.334Z,23.73
2018-01-04T15:50:05.491Z,24.03
2018-01-04T15:52:33.594Z,27.77
2018-01-04T15:55:01.744Z,27.93
2018-01-04T15:57:29.963Z,19.93
2018-01-04T15:59:58.171Z,26.23
2018-01-04T16:02:26.274Z,23.73
2018-01-04T16:04:54.398Z,25.17
2018-01-04T16:07:23.325Z,27.57
2018-01-04T16:09:51.466Z,26.37
2018-01-04T16:12:20.248Z,28.80
2018-01-04T16:14:48.537Z,21.77
2018-01-04T16:17:16.672Z,17.60
2018-01-04T16:19:45.632Z,29.20
2018-01-04T16:22:13.997Z,28.03
2018-01-04T16:24:42.143Z,29.93
2018-01-04T16:27:10.270Z,31.47
2018-01-04T16:29:39.130Z,23.57
2018-01-04T16:32:07.360Z,26.33
2018-01-04T16:34:35.539Z,26.70
2018-01-04T16:37:04.381Z,23.33
2018-01-04T16:39:32.617Z,29.87
2018-01-04T16:42:00.921Z,28.57
2018-01-04T16:44:30.759Z,26.90
2018-01-04T16:46:58.873Z,26.53
2018-01-04T16:49:27.081Z,30.43
2018-01-04T16:51:55.382Z,34.57
2018-01-04T16:54:24.224Z,24.57
2018-01-04T16:56:52.483Z,29.40
2018-01-04T16:59:20.684Z,29.40
2018-01-04T17:01:48.835Z,24.30
2018-01-04T17:04:16.959Z,31.93
2018-01-04T17:06:45.125Z,30.87
2018-01-04T17:09:13.243Z,32.07
2018-01-04T17:11:41.481Z,25.73
2018-01-04T17:14:10.560Z,27.90
2018-01-04T17:16:38.901Z,29.17
2018-01-04T17:19:07.097Z,32.13
2018-01-04T17:21:36.111Z,28.20
2018-01-04T17:24:04.304Z,25.93
2018-01-04T17:26:33.306Z,36.37
2018-01-04T17:29:11.759Z,36.97
2018-01-04T17:31:40.889Z,37.13
2018-01-04T17:34:10.432Z,37.67
2018-01-04T17:36:38.559Z,34.40
2018-01-04T17:39:06.702Z,31.30
2018-01-04T17:41:34.876Z,26.53
2018-01-04T17:44:03.036Z,26.20
2018-01-04T17:46:31.158Z,30.80
2018-01-04T17:48:59.275Z,26.00
2018-01-04T17:51:28.173Z,32.90
2018-01-04T17:53:56.258Z,23.30
2018-01-04T17:56:24.366Z,23.63
2018-01-04T17:58:52.613Z,24.70
2018-01-04T18:01:20.813Z,24.63
2018-01-04T18:03:48.963Z,34.70
2018-01-04T18:06:17.881Z,26.57
2018-01-04T18:08:46.062Z,25.73
2018-01-04T18:11:14.247Z,28.07
2018-01-04T18:13:42.612Z,26.73
2018-01-04T18:16:11.556Z,23.33
2018-01-04T18:18:39.757Z,28.33
2018-01-04T18:21:08.315Z,23.90
2018-01-04T18:23:36.451Z,30.23
2018-01-04T18:26:05.348Z,27.57
2018-01-04T18:28:33.590Z,26.60
2018-01-04T18:31:02.495Z,26.30
2018-01-04T18:33:30.790Z,26.93
2018-01-04T18:35:59.294Z,25.20
2018-01-04T18:38:27.719Z,23.07
2018-01-04T18:40:55.849Z,31.20
2018-01-04T18:43:24.007Z,27.80
2018-01-04T18:45:52.886Z,22.73
2018-01-04T18:48:22.083Z,27.10
2018-01-04T18:50:50.333Z,27.97
2018-01-04T18:53:18.485Z,22.07
2018-01-04T18:55:46.635Z,20.20
2018-01-04T18:58:14.781Z,23.80
2018-01-04T19:00:42.904Z,18.27
2018-01-04T19:03:11.094Z,24.47
2018-01-04T19:05:39.297Z,24.30
2018-01-04T19:08:07.420Z,22.30
2018-01-04T19:10:35.541Z,21.03
2018-01-04T19:13:03.677Z,22.53
2018-01-04T19:15:31.801Z,21.77
2018-01-04T19:17:59.916Z,22.73
2018-01-04T19:20:28.206Z,22.40
2018-01-04T19:22:56.346Z,28.70
2018-01-04T19:25:24.490Z,20.70
2018-01-04T19:27:52.618Z,25.00
2018-01-04T19:30:20.761Z,24.60
2018-01-04T19:32:48.870Z,24.47
2018-01-04T19:35:18.673Z,21.37
2018-01-04T19:37:47.675Z,24.00
2018-01-04T19:40:15.835Z,20.10
2018-01-04T19:42:43.955Z,23.77
2018-01-04T19:45:12.076Z,17.57
2018-01-04T19:47:40.418Z,20.50
2018-01-04T19:50:08.722Z,22.87
2018-01-04T19:52:36.952Z,24.47
2018-01-04T19:55:05.197Z,21.63
2018-01-04T19:57:33.312Z,18.57
2018-01-04T20:00:01.471Z,18.30
2018-01-04T20:02:30.555Z,20.40
2018-01-04T20:04:58.796Z,20.70
2018-01-04T20:07:26.937Z,23.97
2018-01-04T20:09:55.206Z,21.00
2018-01-04T20:12:23.297Z,17.73
2018-01-04T20:14:51.500Z,18.00
2018-01-04T20:17:20.449Z,25.57
2018-01-04T20:19:48.692Z,22.67
2018-01-04T20:22:16.873Z,19.87
2018-01-04T20:24:45.250Z,19.83
2018-01-04T20:27:13.559Z,16.90
2018-01-04T20:29:41.715Z,21.70
2018-01-04T20:32:09.838Z,18.07
2018-01-04T20:34:38.757Z,16.57
2018-01-04T20:37:07.771Z,24.63
2018-01-04T20:39:35.927Z,23.03
2018-01-04T20:42:04.871Z,21.77
2018-01-04T20:44:32.989Z,24.60
2018-01-04T20:47:01.158Z,17.37
2018-01-04T20:49:29.334Z,16.50
2018-01-04T20:52:01.192Z,22.30
2018-01-04T20:54:30.308Z,19.30
2018-01-04T20:56:59.484Z,14.83
2018-01-04T20:59:27.658Z,17.80
2018-01-04T21:01:55.832Z,14.03
2018-01-04T21:04:23.998Z,15.83
2018-01-04T21:06:52.752Z,19.47
2018-01-04T21:09:20.916Z,18.93
2018-01-04T21:11:49.836Z,16.93
2018-01-04T21:14:17.964Z,18.67
2018-01-04T21:16:46.448Z,14.73
2018-01-04T21:19:14.669Z,15.10
2018-01-04T21:21:42.963Z,14.00
2018-01-04T21:24:11.222Z,12.50
2018-01-04T21:26:39.513Z,15.97
2018-01-04T21:29:12.788Z,13.23
2018-01-04T21:31:40.955Z,14.87
2018-01-04T21:34:09.195Z,14.67
2018-01-04T21:36:40.910Z,11.60
2018-01-04T21:39:09.053Z,14.60
2018-01-04T21:41:37.261Z,10.83
2018-01-04T21:44:06.232Z,14.70
2018-01-04T21:46:34.443Z,16.67
2018-01-04T21:49:05.698Z,12.30
2018-01-04T21:51:33.868Z,13.13
2018-01-04T21:54:03.834Z,13.07
2018-01-04T21:56:34.512Z,13.90
2018-01-04T21:59:02.770Z,11.57
2018-01-04T22:01:30.868Z,12.57
2018-01-04T22:03:59.558Z,12.30
2018-01-04T22:06:30.095Z,10.83
2018-01-04T22:08:58.285Z,11.13
2018-01-04T22:11:27.143Z,11.83
2018-01-04T22:13:55.469Z,11.03
2018-01-04T22:16:24.416Z,7.70
2018-01-04T22:18:52.605Z,10.33
2018-01-04T22:21:20.801Z,10.67
2018-01-04T22:23:49.085Z,8.57
2018-01-04T22:26:17.591Z,10.63
2018-01-04T22:28:45.762Z,16.30
2018-01-04T22:31:13.895Z,13.70
2018-01-04T22:33:42.822Z,18.00
2018-01-04T22:36:10.991Z,16.07
2018-01-04T22:38:39.105Z,15.53
2018-01-04T22:41:07.289Z,16.27
2018-01-04T22:43:35.412Z,16.40
2018-01-04T22:46:03.674Z,16.50
2018-01-04T22:48:31.804Z,14.70
2018-01-04T22:51:00.774Z,16.10
2018-01-04T22:53:31.411Z,15.20
2018-01-04T22:55:59.593Z,18.87
2018-01-04T22:58:28.509Z,20.47
2018-01-04T23:00:56.996Z,20.13
2018-01-04T23:03:25.149Z,20.67
2018-01-04T23:05:53.381Z,23.23
2018-01-04T23:08:21.494Z,17.93
2018-01-04T23:10:50.413Z,20.00
2018-01-04T23:13:18.537Z,17.83
2018-01-04T23:15:46.671Z,17.57
2018-01-04T23:18:15.749Z,24.50
2018-01-04T23:20:44.223Z,17.10
2018-01-04T23:23:12.377Z,17.20
2018-01-04T23:25:40.517Z,18.20
2018-01-04T23:28:08.709Z,16.53
2018-01-04T23:30:36.891Z,22.03
2018-01-04T23:33:05.096Z,15.80
2018-01-04T23:35:33.977Z,20.47
2018-01-04T23:38:02.105Z,23.10
2018-01-04T23:40:30.202Z,13.60
2018-01-04T23:42:58.300Z,12.07
2018-01-04T23:45:26.411Z,16.40
2018-01-04T23:47:54.532Z,13.50
2018-01-04T23:50:22.634Z,8.77
2018-01-04T23:52:50.760Z,15.20
2018-01-04T23:55:18.852Z,7.57
2018-01-04T23:57:46.960Z,14.37
